Cape Romanzof Lrrs Airport
PACZ : now visible

Aeroporto :











RITROVATECI SU...

 
LOGIN :

Iscrizione | Disclaimer

   EN    FR    IT 

 









Sommario :    VFR   VFR Marginale   IFR   IFR Intensivo   IFR Molto Intensivo
Visibilità : 
Base nubi : 
>= 8 km
>= 3000ft
5 / 8 km
1000 / 3000 ft
1500m / 5 km
500 / 1000 ft
800 / 1500m
200 / 500 ft
< 800m
< 200 ft
Simboli :   Temporali  Nebbia  Neve Forte  Precipitazioni Forti  Vento > 20 kt






- Altitudine del aeroporto : 464 ft
- Codice IATA : CZF


PACZ - Cape Romanzof Lrrs

ULTIMO METAR :
  • 010843Z AUTO 03016KT 10SM -SN FEW012 SCT018 BKN033 M10/M12 A2898 RMK AO2 SLP826

METARs OBSOLETI :
  • 010828Z AUTO 04017KT 5SM -SN BKN013 OVC033 M10/M13 A2898 RMK AO2 SLP826
  • 010813Z AUTO 04015KT 1 3/4SM -SHSN BKN013 M11/M12 A2898 RMK AO2 SLP827
  • 010755Z AUTO 04014KT 8SM -SHSN BKN014 M11/M13 A2899 RMK AO2 SNB0609E0657SHSNB0713 SLP828 P0000 T11081129
  • 010743Z AUTO 05016KT 7SM -SHSN BKN015 M11/M13 A2899 RMK AO2 SLP828
  • 010728Z AUTO 05015KT 1 1/2SM -SHSN BKN017 M10/M13 A2899 RMK AO2 SLP828
  • 010713Z AUTO 06017KT 10SM BKN031 M10/M14 A2898 RMK AO2 SLP827
  • 010658Z AUTO 07017KT 10SM BKN022 M10/M14 A2899 RMK AO2 SLP828
  • 010642Z AUTO 06018KT 10SM -SN BKN012 M10/M13 A2899 RMK AO2 PK WND 02039/0556 SLP827
  • 010627Z AUTO 05019G27KT 1SM -SN BR BKN010 M10/M12 A2898 RMK AO2 PK WND 02039/0556 SLP826
  • 010612Z AUTO 04020KT 1SM -SN BR BKN009 M09/M11 A2899 RMK AO2 PK WND 02039/0556 SLP828
  • 010557Z AUTO 02035G42KT 1/2SM -SHSN FG FEW006 SCT025 BKN028 M09/M10 A2896 RMK AO2 SLP820

Previsioni scadute.
FIR PAZA / America del Nord



MetMap, La meteo Aeronautica in un colpo d'occhio ! - Copyright ORBIFLY Dicembre 2007 - Disclaimer

ORBIFLY MET'MAP TEAM :

Programmazione e sviluppo : Alexandra Zaïnal
Concezione : Baudouin d'Aumeries
Aiuto per la programmazione : Marc-Olivier Méhu
Supporto tecnico e logistico : Manuel Goepfert
Aiuto per la traduzione : Arnaldo La Scala

Contatto : metmap@orbifly.com




FONTI E CREDITI :

   NOAA       Earth
Advisory